sensor_id;sensor_type;location;lat;lon;timestamp;P1;durP1;ratioP1;P2;durP2;ratioP2
7239;SDS011;3661;53.288;10.458;2023-12-07T00:00:21;603.70;;;569.43;;
7239;SDS011;3661;53.288;10.458;2023-12-07T00:02:53;602.45;;;568.50;;
7239;SDS011;3661;53.288;10.458;2023-12-07T00:05:25;601.33;;;567.53;;
7239;SDS011;3661;53.288;10.458;2023-12-07T00:07:57;588.73;;;554.30;;
7239;SDS011;3661;53.288;10.458;2023-12-07T00:10:29;596.83;;;563.75;;
7239;SDS011;3661;53.288;10.458;2023-12-07T00:13:03;621.42;;;586.50;;
7239;SDS011;3661;53.288;10.458;2023-12-07T00:15:35;584.10;;;551.33;;
7239;SDS011;3661;53.288;10.458;2023-12-07T00:18:07;608.28;;;572.58;;
7239;SDS011;3661;53.288;10.458;2023-12-07T00:20:39;592.80;;;559.03;;
7239;SDS011;3661;53.288;10.458;2023-12-07T00:23:11;605.25;;;570.63;;
7239;SDS011;3661;53.288;10.458;2023-12-07T00:25:43;604.63;;;570.63;;
7239;SDS011;3661;53.288;10.458;2023-12-07T00:28:17;602.53;;;567.40;;
7239;SDS011;3661;53.288;10.458;2023-12-07T00:30:49;615.03;;;580.42;;
7239;SDS011;3661;53.288;10.458;2023-12-07T00:33:21;601.80;;;567.45;;
7239;SDS011;3661;53.288;10.458;2023-12-07T00:35:53;610.25;;;576.63;;
7239;SDS011;3661;53.288;10.458;2023-12-07T00:38:25;612.00;;;577.95;;
7239;SDS011;3661;53.288;10.458;2023-12-07T00:40:57;599.80;;;566.10;;
7239;SDS011;3661;53.288;10.458;2023-12-07T00:43:30;618.65;;;584.00;;
7239;SDS011;3661;53.288;10.458;2023-12-07T00:46:03;600.42;;;564.80;;
7239;SDS011;3661;53.288;10.458;2023-12-07T00:48:35;590.50;;;556.63;;
7239;SDS011;3661;53.288;10.458;2023-12-07T00:51:08;617.50;;;582.88;;
7239;SDS011;3661;53.288;10.458;2023-12-07T00:53:42;612.17;;;576.97;;
7239;SDS011;3661;53.288;10.458;2023-12-07T00:56:14;614.50;;;579.40;;
7239;SDS011;3661;53.288;10.458;2023-12-07T00:58:47;605.47;;;569.13;;
7239;SDS011;3661;53.288;10.458;2023-12-07T01:01:19;597.97;;;563.00;;
7239;SDS011;3661;53.288;10.458;2023-12-07T01:03:51;620.80;;;586.13;;
7239;SDS011;3661;53.288;10.458;2023-12-07T01:06:23;612.38;;;576.63;;
7239;SDS011;3661;53.288;10.458;2023-12-07T01:08:55;610.10;;;574.88;;
7239;SDS011;3661;53.288;10.458;2023-12-07T01:11:27;618.60;;;582.00;;
7239;SDS011;3661;53.288;10.458;2023-12-07T01:14:01;600.65;;;565.55;;
7239;SDS011;3661;53.288;10.458;2023-12-07T01:16:33;587.28;;;552.30;;
7239;SDS011;3661;53.288;10.458;2023-12-07T01:19:05;612.78;;;577.60;;
7239;SDS011;3661;53.288;10.458;2023-12-07T01:21:37;599.33;;;564.03;;
7239;SDS011;3661;53.288;10.458;2023-12-07T01:24:09;592.00;;;557.22;;
7239;SDS011;3661;53.288;10.458;2023-12-07T01:26:41;593.85;;;558.10;;
7239;SDS011;3661;53.288;10.458;2023-12-07T01:29:15;608.55;;;571.78;;
7239;SDS011;3661;53.288;10.458;2023-12-07T01:31:48;601.05;;;565.38;;
7239;SDS011;3661;53.288;10.458;2023-12-07T01:34:20;597.30;;;563.17;;
7239;SDS011;3661;53.288;10.458;2023-12-07T01:36:52;594.28;;;559.42;;
7239;SDS011;3661;53.288;10.458;2023-12-07T01:39:26;601.92;;;566.63;;
7239;SDS011;3661;53.288;10.458;2023-12-07T01:41:58;594.40;;;558.28;;
7239;SDS011;3661;53.288;10.458;2023-12-07T01:44:31;590.47;;;556.40;;
7239;SDS011;3661;53.288;10.458;2023-12-07T01:47:03;595.05;;;560.22;;
7239;SDS011;3661;53.288;10.458;2023-12-07T01:49:37;590.00;;;555.03;;
7239;SDS011;3661;53.288;10.458;2023-12-07T01:52:10;602.55;;;566.75;;
7239;SDS011;3661;53.288;10.458;2023-12-07T01:54:42;608.60;;;573.00;;
7239;SDS011;3661;53.288;10.458;2023-12-07T01:57:15;614.53;;;579.13;;
7239;SDS011;3661;53.288;10.458;2023-12-07T01:59:49;592.60;;;557.45;;
7239;SDS011;3661;53.288;10.458;2023-12-07T02:02:21;604.20;;;569.90;;
7239;SDS011;3661;53.288;10.458;2023-12-07T02:04:54;604.58;;;570.20;;
7239;SDS011;3661;53.288;10.458;2023-12-07T02:07:26;613.17;;;578.35;;
7239;SDS011;3661;53.288;10.458;2023-12-07T02:09:59;597.85;;;562.22;;
7239;SDS011;3661;53.288;10.458;2023-12-07T02:12:31;602.58;;;568.33;;
7239;SDS011;3661;53.288;10.458;2023-12-07T02:15:05;592.85;;;558.60;;
7239;SDS011;3661;53.288;10.458;2023-12-07T02:17:40;590.75;;;555.13;;
7239;SDS011;3661;53.288;10.458;2023-12-07T02:20:17;593.90;;;558.70;;
7239;SDS011;3661;53.288;10.458;2023-12-07T02:22:56;588.75;;;553.40;;
7239;SDS011;3661;53.288;10.458;2023-12-07T02:25:34;604.00;;;568.92;;
7239;SDS011;3661;53.288;10.458;2023-12-07T02:28:09;578.85;;;543.60;;
7239;SDS011;3661;53.288;10.458;2023-12-07T02:30:41;594.85;;;559.67;;
7239;SDS011;3661;53.288;10.458;2023-12-07T02:33:14;611.87;;;576.17;;
7239;SDS011;3661;53.288;10.458;2023-12-07T02:35:46;597.53;;;562.03;;
7239;SDS011;3661;53.288;10.458;2023-12-07T02:38:18;600.80;;;565.40;;
7239;SDS011;3661;53.288;10.458;2023-12-07T02:40:51;600.70;;;565.25;;
7239;SDS011;3661;53.288;10.458;2023-12-07T02:43:26;606.90;;;572.05;;
7239;SDS011;3661;53.288;10.458;2023-12-07T02:46:00;607.83;;;571.25;;
7239;SDS011;3661;53.288;10.458;2023-12-07T02:48:32;597.55;;;563.28;;
7239;SDS011;3661;53.288;10.458;2023-12-07T02:51:04;599.72;;;564.05;;
7239;SDS011;3661;53.288;10.458;2023-12-07T02:53:37;607.38;;;571.15;;
7239;SDS011;3661;53.288;10.458;2023-12-07T02:56:09;603.05;;;567.22;;
7239;SDS011;3661;53.288;10.458;2023-12-07T02:58:44;602.65;;;566.33;;
7239;SDS011;3661;53.288;10.458;2023-12-07T03:01:16;620.75;;;584.33;;
7239;SDS011;3661;53.288;10.458;2023-12-07T03:03:48;606.83;;;571.05;;
7239;SDS011;3661;53.288;10.458;2023-12-07T03:06:20;613.28;;;576.88;;
7239;SDS011;3661;53.288;10.458;2023-12-07T03:08:52;599.83;;;563.65;;
7239;SDS011;3661;53.288;10.458;2023-12-07T03:11:24;601.00;;;565.77;;
7239;SDS011;3661;53.288;10.458;2023-12-07T03:13:58;592.03;;;556.72;;
7239;SDS011;3661;53.288;10.458;2023-12-07T03:16:30;604.63;;;567.88;;
7239;SDS011;3661;53.288;10.458;2023-12-07T03:19:02;606.75;;;570.63;;
7239;SDS011;3661;53.288;10.458;2023-12-07T03:21:38;601.55;;;567.15;;
7239;SDS011;3661;53.288;10.458;2023-12-07T03:24:10;610.17;;;574.13;;
7239;SDS011;3661;53.288;10.458;2023-12-07T03:26:42;619.10;;;582.42;;
7239;SDS011;3661;53.288;10.458;2023-12-07T03:29:17;616.10;;;580.47;;
7239;SDS011;3661;53.288;10.458;2023-12-07T03:31:49;610.03;;;574.05;;
7239;SDS011;3661;53.288;10.458;2023-12-07T03:34:21;612.67;;;575.83;;
7239;SDS011;3661;53.288;10.458;2023-12-07T03:36:53;615.60;;;579.67;;
7239;SDS011;3661;53.288;10.458;2023-12-07T03:39:26;612.92;;;577.90;;
7239;SDS011;3661;53.288;10.458;2023-12-07T03:41:59;616.60;;;579.58;;
7239;SDS011;3661;53.288;10.458;2023-12-07T03:44:41;611.40;;;575.35;;
7239;SDS011;3661;53.288;10.458;2023-12-07T03:47:15;588.45;;;552.50;;
7239;SDS011;3661;53.288;10.458;2023-12-07T03:49:47;611.40;;;575.00;;
7239;SDS011;3661;53.288;10.458;2023-12-07T03:52:20;611.00;;;573.83;;
7239;SDS011;3661;53.288;10.458;2023-12-07T03:54:52;616.97;;;579.38;;
7239;SDS011;3661;53.288;10.458;2023-12-07T03:57:24;601.78;;;565.97;;
7239;SDS011;3661;53.288;10.458;2023-12-07T03:59:57;608.58;;;572.90;;
7239;SDS011;3661;53.288;10.458;2023-12-07T04:02:30;624.43;;;587.30;;
7239;SDS011;3661;53.288;10.458;2023-12-07T04:05:04;602.08;;;565.40;;
7239;SDS011;3661;53.288;10.458;2023-12-07T04:07:36;609.03;;;573.55;;
7239;SDS011;3661;53.288;10.458;2023-12-07T04:10:09;604.88;;;569.03;;
7239;SDS011;3661;53.288;10.458;2023-12-07T04:12:41;604.08;;;567.20;;
7239;SDS011;3661;53.288;10.458;2023-12-07T04:15:21;595.22;;;559.75;;
7239;SDS011;3661;53.288;10.458;2023-12-07T04:17:55;611.67;;;575.72;;
7239;SDS011;3661;53.288;10.458;2023-12-07T04:20:27;604.50;;;568.42;;
7239;SDS011;3661;53.288;10.458;2023-12-07T04:22:59;618.90;;;582.20;;
7239;SDS011;3661;53.288;10.458;2023-12-07T04:25:31;599.63;;;563.53;;
7239;SDS011;3661;53.288;10.458;2023-12-07T04:28:03;600.28;;;564.38;;
7239;SDS011;3661;53.288;10.458;2023-12-07T04:30:37;613.90;;;577.80;;
7239;SDS011;3661;53.288;10.458;2023-12-07T04:33:11;601.42;;;564.90;;
7239;SDS011;3661;53.288;10.458;2023-12-07T04:35:43;595.47;;;560.67;;
7239;SDS011;3661;53.288;10.458;2023-12-07T04:38:16;589.95;;;554.47;;
7239;SDS011;3661;53.288;10.458;2023-12-07T04:40:48;587.67;;;551.78;;
7239;SDS011;3661;53.288;10.458;2023-12-07T04:43:20;601.50;;;565.63;;
7239;SDS011;3661;53.288;10.458;2023-12-07T04:45:54;602.77;;;566.73;;
7239;SDS011;3661;53.288;10.458;2023-12-07T04:48:26;598.63;;;562.17;;
7239;SDS011;3661;53.288;10.458;2023-12-07T04:50:58;599.53;;;564.10;;
7239;SDS011;3661;53.288;10.458;2023-12-07T04:53:30;621.37;;;583.73;;
7239;SDS011;3661;53.288;10.458;2023-12-07T04:56:03;613.70;;;577.70;;
7239;SDS011;3661;53.288;10.458;2023-12-07T04:58:36;613.42;;;577.22;;
7239;SDS011;3661;53.288;10.458;2023-12-07T05:01:10;614.67;;;578.40;;
7239;SDS011;3661;53.288;10.458;2023-12-07T05:03:42;598.27;;;562.03;;
7239;SDS011;3661;53.288;10.458;2023-12-07T05:06:14;590.08;;;554.05;;
7239;SDS011;3661;53.288;10.458;2023-12-07T05:08:46;595.88;;;559.05;;
7239;SDS011;3661;53.288;10.458;2023-12-07T05:11:18;598.65;;;562.75;;
7239;SDS011;3661;53.288;10.458;2023-12-07T05:13:51;588.60;;;552.97;;
7239;SDS011;3661;53.288;10.458;2023-12-07T05:16:25;600.95;;;565.10;;
7239;SDS011;3661;53.288;10.458;2023-12-07T05:18:57;616.05;;;579.53;;
7239;SDS011;3661;53.288;10.458;2023-12-07T05:21:29;597.53;;;560.58;;
7239;SDS011;3661;53.288;10.458;2023-12-07T05:24:01;599.93;;;562.60;;
7239;SDS011;3661;53.288;10.458;2023-12-07T05:26:33;592.28;;;556.58;;
7239;SDS011;3661;53.288;10.458;2023-12-07T05:29:05;597.63;;;560.42;;
7239;SDS011;3661;53.288;10.458;2023-12-07T05:31:40;613.15;;;576.55;;
7239;SDS011;3661;53.288;10.458;2023-12-07T05:34:12;603.08;;;566.17;;
7239;SDS011;3661;53.288;10.458;2023-12-07T05:36:44;584.72;;;548.97;;
7239;SDS011;3661;53.288;10.458;2023-12-07T05:39:17;596.53;;;561.57;;
7239;SDS011;3661;53.288;10.458;2023-12-07T05:41:50;591.03;;;554.88;;
7239;SDS011;3661;53.288;10.458;2023-12-07T05:44:22;605.60;;;569.70;;
7239;SDS011;3661;53.288;10.458;2023-12-07T05:46:57;599.95;;;563.25;;
7239;SDS011;3661;53.288;10.458;2023-12-07T05:49:29;609.45;;;573.42;;
7239;SDS011;3661;53.288;10.458;2023-12-07T05:52:01;607.80;;;572.67;;
7239;SDS011;3661;53.288;10.458;2023-12-07T05:54:33;618.03;;;582.28;;
7239;SDS011;3661;53.288;10.458;2023-12-07T05:57:05;596.47;;;561.25;;
7239;SDS011;3661;53.288;10.458;2023-12-07T05:59:37;611.00;;;574.80;;
7239;SDS011;3661;53.288;10.458;2023-12-07T06:02:11;600.85;;;564.15;;
7239;SDS011;3661;53.288;10.458;2023-12-07T06:04:43;614.28;;;578.67;;
7239;SDS011;3661;53.288;10.458;2023-12-07T06:07:15;604.50;;;569.53;;
7239;SDS011;3661;53.288;10.458;2023-12-07T06:09:47;598.40;;;563.63;;
7239;SDS011;3661;53.288;10.458;2023-12-07T06:12:22;601.60;;;565.47;;
7239;SDS011;3661;53.288;10.458;2023-12-07T06:14:54;591.20;;;556.60;;
7239;SDS011;3661;53.288;10.458;2023-12-07T06:17:28;603.97;;;568.20;;
7239;SDS011;3661;53.288;10.458;2023-12-07T06:20:00;618.85;;;583.78;;
7239;SDS011;3661;53.288;10.458;2023-12-07T06:22:33;598.03;;;562.83;;
7239;SDS011;3661;53.288;10.458;2023-12-07T06:25:05;618.15;;;582.05;;
7239;SDS011;3661;53.288;10.458;2023-12-07T06:27:38;614.37;;;579.53;;
7239;SDS011;3661;53.288;10.458;2023-12-07T06:30:10;602.40;;;566.65;;
7239;SDS011;3661;53.288;10.458;2023-12-07T06:32:44;603.08;;;566.85;;
7239;SDS011;3661;53.288;10.458;2023-12-07T06:35:16;627.42;;;591.72;;
7239;SDS011;3661;53.288;10.458;2023-12-07T06:37:49;607.15;;;571.78;;
7239;SDS011;3661;53.288;10.458;2023-12-07T06:40:21;610.53;;;575.03;;
7239;SDS011;3661;53.288;10.458;2023-12-07T06:42:53;580.78;;;546.53;;
7239;SDS011;3661;53.288;10.458;2023-12-07T06:45:25;607.00;;;570.78;;
7239;SDS011;3661;53.288;10.458;2023-12-07T06:47:58;617.77;;;582.03;;
7239;SDS011;3661;53.288;10.458;2023-12-07T06:50:31;615.55;;;579.03;;
7239;SDS011;3661;53.288;10.458;2023-12-07T06:53:03;592.13;;;557.27;;
7239;SDS011;3661;53.288;10.458;2023-12-07T06:55:36;598.20;;;563.13;;
7239;SDS011;3661;53.288;10.458;2023-12-07T06:58:08;614.00;;;576.97;;
7239;SDS011;3661;53.288;10.458;2023-12-07T07:00:41;598.80;;;563.53;;
7239;SDS011;3661;53.288;10.458;2023-12-07T07:03:14;596.10;;;560.47;;
7239;SDS011;3661;53.288;10.458;2023-12-07T07:05:46;606.00;;;570.75;;
7239;SDS011;3661;53.288;10.458;2023-12-07T07:08:18;603.60;;;568.88;;
7239;SDS011;3661;53.288;10.458;2023-12-07T07:10:50;605.13;;;569.65;;
7239;SDS011;3661;53.288;10.458;2023-12-07T07:13:22;608.17;;;573.15;;
7239;SDS011;3661;53.288;10.458;2023-12-07T07:15:54;612.53;;;576.53;;
7239;SDS011;3661;53.288;10.458;2023-12-07T07:18:28;618.70;;;582.40;;
7239;SDS011;3661;53.288;10.458;2023-12-07T07:21:00;622.72;;;585.70;;
7239;SDS011;3661;53.288;10.458;2023-12-07T07:23:35;619.65;;;583.53;;
7239;SDS011;3661;53.288;10.458;2023-12-07T07:26:07;625.93;;;589.83;;
7239;SDS011;3661;53.288;10.458;2023-12-07T07:28:39;620.15;;;583.60;;
7239;SDS011;3661;53.288;10.458;2023-12-07T07:31:11;621.83;;;586.58;;
7239;SDS011;3661;53.288;10.458;2023-12-07T07:33:45;603.40;;;567.60;;
7239;SDS011;3661;53.288;10.458;2023-12-07T07:36:17;616.78;;;581.05;;
7239;SDS011;3661;53.288;10.458;2023-12-07T07:38:49;604.53;;;568.85;;
7239;SDS011;3661;53.288;10.458;2023-12-07T07:41:21;603.90;;;568.25;;
7239;SDS011;3661;53.288;10.458;2023-12-07T07:43:54;609.13;;;575.35;;
7239;SDS011;3661;53.288;10.458;2023-12-07T07:46:27;600.08;;;566.38;;
7239;SDS011;3661;53.288;10.458;2023-12-07T07:49:00;603.83;;;569.80;;
7239;SDS011;3661;53.288;10.458;2023-12-07T07:51:34;614.05;;;580.20;;
7239;SDS011;3661;53.288;10.458;2023-12-07T07:54:06;614.17;;;579.53;;
7239;SDS011;3661;53.288;10.458;2023-12-07T07:56:38;618.08;;;583.35;;
7239;SDS011;3661;53.288;10.458;2023-12-07T07:59:10;622.75;;;588.25;;
7239;SDS011;3661;53.288;10.458;2023-12-07T08:01:42;607.78;;;572.83;;
7239;SDS011;3661;53.288;10.458;2023-12-07T08:04:16;608.85;;;574.88;;
7239;SDS011;3661;53.288;10.458;2023-12-07T08:06:48;603.13;;;568.03;;
7239;SDS011;3661;53.288;10.458;2023-12-07T08:09:20;598.65;;;564.13;;
7239;SDS011;3661;53.288;10.458;2023-12-07T08:11:52;611.33;;;576.20;;
7239;SDS011;3661;53.288;10.458;2023-12-07T08:14:24;603.50;;;568.75;;
7239;SDS011;3661;53.288;10.458;2023-12-07T08:16:56;604.22;;;569.67;;
7239;SDS011;3661;53.288;10.458;2023-12-07T08:19:30;605.35;;;571.17;;
7239;SDS011;3661;53.288;10.458;2023-12-07T08:22:02;620.85;;;585.13;;
7239;SDS011;3661;53.288;10.458;2023-12-07T08:24:34;619.30;;;583.47;;
7239;SDS011;3661;53.288;10.458;2023-12-07T08:27:07;611.17;;;576.57;;
7239;SDS011;3661;53.288;10.458;2023-12-07T08:29:39;616.85;;;581.72;;
7239;SDS011;3661;53.288;10.458;2023-12-07T08:32:11;625.35;;;591.47;;
7239;SDS011;3661;53.288;10.458;2023-12-07T08:34:46;611.90;;;577.53;;
7239;SDS011;3661;53.288;10.458;2023-12-07T08:37:18;613.30;;;579.78;;
7239;SDS011;3661;53.288;10.458;2023-12-07T08:39:50;614.90;;;581.03;;
7239;SDS011;3661;53.288;10.458;2023-12-07T08:42:22;624.45;;;589.72;;
7239;SDS011;3661;53.288;10.458;2023-12-07T08:44:54;605.35;;;571.63;;
7239;SDS011;3661;53.288;10.458;2023-12-07T08:47:26;612.08;;;578.15;;
7239;SDS011;3661;53.288;10.458;2023-12-07T08:50:01;619.45;;;584.72;;
7239;SDS011;3661;53.288;10.458;2023-12-07T08:52:34;619.65;;;584.72;;
7239;SDS011;3661;53.288;10.458;2023-12-07T08:55:06;622.13;;;586.73;;
7239;SDS011;3661;53.288;10.458;2023-12-07T08:57:38;619.77;;;585.27;;
7239;SDS011;3661;53.288;10.458;2023-12-07T09:00:12;612.33;;;577.70;;
7239;SDS011;3661;53.288;10.458;2023-12-07T09:02:45;606.63;;;572.70;;
7239;SDS011;3661;53.288;10.458;2023-12-07T09:05:18;624.40;;;590.65;;
7239;SDS011;3661;53.288;10.458;2023-12-07T09:07:50;639.77;;;605.37;;
7239;SDS011;3661;53.288;10.458;2023-12-07T09:10:23;613.20;;;578.40;;
7239;SDS011;3661;53.288;10.458;2023-12-07T09:12:58;636.15;;;600.72;;
7239;SDS011;3661;53.288;10.458;2023-12-07T09:15:33;631.10;;;595.17;;
7239;SDS011;3661;53.288;10.458;2023-12-07T09:18:07;615.57;;;580.87;;
7239;SDS011;3661;53.288;10.458;2023-12-07T09:20:42;609.63;;;575.27;;
7239;SDS011;3661;53.288;10.458;2023-12-07T09:23:16;627.88;;;592.85;;
7239;SDS011;3661;53.288;10.458;2023-12-07T09:25:48;632.47;;;597.67;;
7239;SDS011;3661;53.288;10.458;2023-12-07T09:28:20;643.08;;;608.03;;
7239;SDS011;3661;53.288;10.458;2023-12-07T09:30:52;632.30;;;596.55;;
7239;SDS011;3661;53.288;10.458;2023-12-07T09:33:25;629.03;;;594.70;;
7239;SDS011;3661;53.288;10.458;2023-12-07T09:35:58;618.70;;;584.20;;
7239;SDS011;3661;53.288;10.458;2023-12-07T09:38:30;620.60;;;585.83;;
7239;SDS011;3661;53.288;10.458;2023-12-07T09:41:02;647.10;;;610.60;;
7239;SDS011;3661;53.288;10.458;2023-12-07T09:43:35;637.35;;;602.67;;
7239;SDS011;3661;53.288;10.458;2023-12-07T09:46:07;654.63;;;618.47;;
7239;SDS011;3661;53.288;10.458;2023-12-07T09:48:39;633.43;;;596.73;;
7239;SDS011;3661;53.288;10.458;2023-12-07T09:51:16;624.00;;;588.88;;
7239;SDS011;3661;53.288;10.458;2023-12-07T09:53:49;633.67;;;598.38;;
7239;SDS011;3661;53.288;10.458;2023-12-07T09:56:24;646.58;;;610.03;;
7239;SDS011;3661;53.288;10.458;2023-12-07T09:58:56;635.88;;;599.53;;
7239;SDS011;3661;53.288;10.458;2023-12-07T10:01:28;632.88;;;596.22;;
7239;SDS011;3661;53.288;10.458;2023-12-07T10:06:57;614.42;;;579.83;;
7239;SDS011;3661;53.288;10.458;2023-12-07T10:09:29;628.40;;;592.92;;
7239;SDS011;3661;53.288;10.458;2023-12-07T10:12:01;646.33;;;609.75;;
7239;SDS011;3661;53.288;10.458;2023-12-07T10:14:34;634.70;;;598.00;;
7239;SDS011;3661;53.288;10.458;2023-12-07T10:17:06;630.78;;;595.22;;
7239;SDS011;3661;53.288;10.458;2023-12-07T10:19:38;621.90;;;585.75;;
7239;SDS011;3661;53.288;10.458;2023-12-07T10:22:16;642.77;;;606.10;;
7239;SDS011;3661;53.288;10.458;2023-12-07T10:24:48;632.72;;;597.63;;
7239;SDS011;3661;53.288;10.458;2023-12-07T10:27:21;640.22;;;604.10;;
7239;SDS011;3661;53.288;10.458;2023-12-07T10:29:53;654.55;;;618.10;;
7239;SDS011;3661;53.288;10.458;2023-12-07T10:32:26;645.85;;;608.47;;
7239;SDS011;3661;53.288;10.458;2023-12-07T10:34:58;644.45;;;608.75;;
7239;SDS011;3661;53.288;10.458;2023-12-07T10:37:32;650.28;;;613.05;;
7239;SDS011;3661;53.288;10.458;2023-12-07T10:40:05;662.35;;;625.53;;
7239;SDS011;3661;53.288;10.458;2023-12-07T10:42:38;635.70;;;600.00;;
7239;SDS011;3661;53.288;10.458;2023-12-07T10:45:13;644.90;;;608.45;;
7239;SDS011;3661;53.288;10.458;2023-12-07T10:47:46;650.95;;;614.22;;
7239;SDS011;3661;53.288;10.458;2023-12-07T10:50:21;656.03;;;619.67;;
7239;SDS011;3661;53.288;10.458;2023-12-07T10:52:56;664.25;;;627.13;;
7239;SDS011;3661;53.288;10.458;2023-12-07T10:55:30;653.05;;;615.33;;
7239;SDS011;3661;53.288;10.458;2023-12-07T10:58:13;654.45;;;617.53;;
7239;SDS011;3661;53.288;10.458;2023-12-07T11:00:47;635.83;;;599.17;;
7239;SDS011;3661;53.288;10.458;2023-12-07T11:03:22;667.33;;;628.97;;
7239;SDS011;3661;53.288;10.458;2023-12-07T11:05:55;634.72;;;599.35;;
7239;SDS011;3661;53.288;10.458;2023-12-07T11:08:28;655.72;;;619.03;;
7239;SDS011;3661;53.288;10.458;2023-12-07T11:11:05;673.55;;;635.92;;
7239;SDS011;3661;53.288;10.458;2023-12-07T11:13:44;659.50;;;622.88;;
7239;SDS011;3661;53.288;10.458;2023-12-07T11:16:28;668.80;;;632.42;;
7239;SDS011;3661;53.288;10.458;2023-12-07T11:19:01;651.00;;;614.58;;
7239;SDS011;3661;53.288;10.458;2023-12-07T11:21:33;679.58;;;642.30;;
7239;SDS011;3661;53.288;10.458;2023-12-07T11:24:07;652.00;;;615.72;;
7239;SDS011;3661;53.288;10.458;2023-12-07T11:26:39;665.53;;;629.47;;
7239;SDS011;3661;53.288;10.458;2023-12-07T11:29:14;656.28;;;619.95;;
7239;SDS011;3661;53.288;10.458;2023-12-07T11:31:50;643.85;;;608.15;;
7239;SDS011;3661;53.288;10.458;2023-12-07T11:34:33;666.63;;;630.00;;
7239;SDS011;3661;53.288;10.458;2023-12-07T11:37:06;655.00;;;619.38;;
7239;SDS011;3661;53.288;10.458;2023-12-07T11:39:40;645.78;;;608.47;;
7239;SDS011;3661;53.288;10.458;2023-12-07T11:42:16;656.83;;;620.00;;
7239;SDS011;3661;53.288;10.458;2023-12-07T11:44:49;666.20;;;628.78;;
7239;SDS011;3661;53.288;10.458;2023-12-07T11:47:22;652.17;;;614.72;;
7239;SDS011;3661;53.288;10.458;2023-12-07T11:49:54;669.63;;;633.15;;
7239;SDS011;3661;53.288;10.458;2023-12-07T11:52:34;671.60;;;633.72;;
7239;SDS011;3661;53.288;10.458;2023-12-07T11:55:08;665.10;;;627.00;;
7239;SDS011;3661;53.288;10.458;2023-12-07T11:57:43;685.00;;;646.95;;
7239;SDS011;3661;53.288;10.458;2023-12-07T12:00:15;666.03;;;628.80;;
7239;SDS011;3661;53.288;10.458;2023-12-07T12:02:48;655.45;;;618.15;;
7239;SDS011;3661;53.288;10.458;2023-12-07T12:05:23;682.08;;;644.47;;
7239;SDS011;3661;53.288;10.458;2023-12-07T12:07:55;679.65;;;643.10;;
7239;SDS011;3661;53.288;10.458;2023-12-07T12:10:29;671.05;;;632.67;;
7239;SDS011;3661;53.288;10.458;2023-12-07T12:13:01;679.00;;;642.10;;
7239;SDS011;3661;53.288;10.458;2023-12-07T12:15:34;678.80;;;641.28;;
7239;SDS011;3661;53.288;10.458;2023-12-07T12:18:07;673.05;;;636.55;;
7239;SDS011;3661;53.288;10.458;2023-12-07T12:20:39;688.60;;;651.50;;
7239;SDS011;3661;53.288;10.458;2023-12-07T12:23:12;677.85;;;640.17;;
7239;SDS011;3661;53.288;10.458;2023-12-07T12:25:46;678.03;;;640.78;;
7239;SDS011;3661;53.288;10.458;2023-12-07T12:28:19;658.60;;;620.65;;
7239;SDS011;3661;53.288;10.458;2023-12-07T12:30:54;664.40;;;626.22;;
7239;SDS011;3661;53.288;10.458;2023-12-07T12:33:27;671.28;;;633.30;;
7239;SDS011;3661;53.288;10.458;2023-12-07T12:36:05;676.60;;;639.17;;
7239;SDS011;3661;53.288;10.458;2023-12-07T12:38:40;673.30;;;637.05;;
7239;SDS011;3661;53.288;10.458;2023-12-07T12:41:17;670.78;;;633.80;;
7239;SDS011;3661;53.288;10.458;2023-12-07T12:43:50;675.67;;;638.47;;
7239;SDS011;3661;53.288;10.458;2023-12-07T12:46:23;692.50;;;654.05;;
7239;SDS011;3661;53.288;10.458;2023-12-07T12:48:55;659.50;;;623.20;;
7239;SDS011;3661;53.288;10.458;2023-12-07T12:51:29;679.53;;;642.03;;
7239;SDS011;3661;53.288;10.458;2023-12-07T12:54:02;682.78;;;645.88;;
7239;SDS011;3661;53.288;10.458;2023-12-07T12:56:36;662.72;;;626.65;;
7239;SDS011;3661;53.288;10.458;2023-12-07T12:59:08;667.42;;;630.92;;
7239;SDS011;3661;53.288;10.458;2023-12-07T13:01:40;687.42;;;650.55;;
7239;SDS011;3661;53.288;10.458;2023-12-07T13:04:13;682.60;;;644.75;;
7239;SDS011;3661;53.288;10.458;2023-12-07T13:06:45;694.63;;;657.53;;
7239;SDS011;3661;53.288;10.458;2023-12-07T13:09:17;679.60;;;642.42;;
7239;SDS011;3661;53.288;10.458;2023-12-07T13:11:53;709.22;;;671.58;;
7239;SDS011;3661;53.288;10.458;2023-12-07T13:14:25;691.22;;;653.72;;
7239;SDS011;3661;53.288;10.458;2023-12-07T13:16:59;685.58;;;649.80;;
7239;SDS011;3661;53.288;10.458;2023-12-07T13:19:34;685.90;;;648.75;;
7239;SDS011;3661;53.288;10.458;2023-12-07T13:22:06;685.97;;;650.50;;
7239;SDS011;3661;53.288;10.458;2023-12-07T13:24:38;686.13;;;648.83;;
7239;SDS011;3661;53.288;10.458;2023-12-07T13:27:12;691.87;;;654.87;;
7239;SDS011;3661;53.288;10.458;2023-12-07T13:29:45;684.83;;;647.90;;
7239;SDS011;3661;53.288;10.458;2023-12-07T13:32:18;689.25;;;652.55;;
7239;SDS011;3661;53.288;10.458;2023-12-07T13:34:50;679.08;;;643.13;;
7239;SDS011;3661;53.288;10.458;2023-12-07T13:37:22;698.28;;;660.83;;
7239;SDS011;3661;53.288;10.458;2023-12-07T13:39:54;665.58;;;629.70;;
7239;SDS011;3661;53.288;10.458;2023-12-07T13:42:29;681.38;;;645.40;;
7239;SDS011;3661;53.288;10.458;2023-12-07T13:45:05;666.83;;;631.70;;
7239;SDS011;3661;53.288;10.458;2023-12-07T13:47:38;681.90;;;645.75;;
7239;SDS011;3661;53.288;10.458;2023-12-07T13:50:10;687.80;;;651.75;;
7239;SDS011;3661;53.288;10.458;2023-12-07T13:52:43;697.15;;;660.75;;
7239;SDS011;3661;53.288;10.458;2023-12-07T13:55:15;679.80;;;641.97;;
7239;SDS011;3661;53.288;10.458;2023-12-07T13:57:48;678.28;;;641.75;;
7239;SDS011;3661;53.288;10.458;2023-12-07T14:00:22;684.63;;;647.83;;
7239;SDS011;3661;53.288;10.458;2023-12-07T14:02:54;681.00;;;643.45;;
7239;SDS011;3661;53.288;10.458;2023-12-07T14:05:26;687.03;;;650.28;;
7239;SDS011;3661;53.288;10.458;2023-12-07T14:07:58;686.10;;;648.75;;
7239;SDS011;3661;53.288;10.458;2023-12-07T14:10:31;675.53;;;639.60;;
7239;SDS011;3661;53.288;10.458;2023-12-07T14:13:05;672.05;;;636.35;;
7239;SDS011;3661;53.288;10.458;2023-12-07T14:15:38;691.97;;;655.05;;
7239;SDS011;3661;53.288;10.458;2023-12-07T14:18:11;673.40;;;637.42;;
7239;SDS011;3661;53.288;10.458;2023-12-07T14:20:43;692.70;;;656.17;;
7239;SDS011;3661;53.288;10.458;2023-12-07T14:23:16;683.90;;;647.38;;
7239;SDS011;3661;53.288;10.458;2023-12-07T14:25:48;677.95;;;640.15;;
7239;SDS011;3661;53.288;10.458;2023-12-07T14:28:22;679.40;;;642.28;;
7239;SDS011;3661;53.288;10.458;2023-12-07T14:30:55;651.20;;;615.23;;
7239;SDS011;3661;53.288;10.458;2023-12-07T14:33:27;678.07;;;641.37;;
7239;SDS011;3661;53.288;10.458;2023-12-07T14:36:00;674.28;;;638.22;;
7239;SDS011;3661;53.288;10.458;2023-12-07T14:38:32;664.83;;;629.28;;
7239;SDS011;3661;53.288;10.458;2023-12-07T14:41:06;679.72;;;642.72;;
7239;SDS011;3661;53.288;10.458;2023-12-07T14:43:40;678.28;;;642.10;;